sensor_id;sensor_type;location;lat;lon;timestamp;temperature;humidity
25923;DHT22;13725;51.170;4.442;2023-04-15T00:00:38;11.30;99.90
25923;DHT22;13725;51.170;4.442;2023-04-15T00:03:04;11.20;99.90
25923;DHT22;13725;51.170;4.442;2023-04-15T00:05:30;11.20;99.90
25923;DHT22;13725;51.170;4.442;2023-04-15T00:07:57;11.20;99.90
25923;DHT22;13725;51.170;4.442;2023-04-15T00:10:24;11.20;99.90
25923;DHT22;13725;51.170;4.442;2023-04-15T00:12:50;11.20;99.90
25923;DHT22;13725;51.170;4.442;2023-04-15T00:15:17;11.20;99.90
25923;DHT22;13725;51.170;4.442;2023-04-15T00:17:43;11.30;99.90
25923;DHT22;13725;51.170;4.442;2023-04-15T00:20:09;11.40;99.90
25923;DHT22;13725;51.170;4.442;2023-04-15T00:22:35;11.30;99.90
25923;DHT22;13725;51.170;4.442;2023-04-15T00:25:01;11.40;99.90
25923;DHT22;13725;51.170;4.442;2023-04-15T00:27:27;11.40;99.90
25923;DHT22;13725;51.170;4.442;2023-04-15T00:29:54;11.40;99.90
25923;DHT22;13725;51.170;4.442;2023-04-15T00:32:20;11.40;99.90
25923;DHT22;13725;51.170;4.442;2023-04-15T00:34:46;11.40;99.90
25923;DHT22;13725;51.170;4.442;2023-04-15T00:37:12;11.60;99.90
25923;DHT22;13725;51.170;4.442;2023-04-15T00:39:38;11.50;99.90
25923;DHT22;13725;51.170;4.442;2023-04-15T00:42:03;11.50;99.90
25923;DHT22;13725;51.170;4.442;2023-04-15T00:44:29;11.60;99.90
25923;DHT22;13725;51.170;4.442;2023-04-15T00:46:56;11.60;99.90
25923;DHT22;13725;51.170;4.442;2023-04-15T00:49:22;11.60;99.90
25923;DHT22;13725;51.170;4.442;2023-04-15T00:51:48;11.60;99.90
25923;DHT22;13725;51.170;4.442;2023-04-15T00:54:14;11.60;99.90
25923;DHT22;13725;51.170;4.442;2023-04-15T00:56:41;11.60;99.90
25923;DHT22;13725;51.170;4.442;2023-04-15T00:59:07;11.60;99.90
25923;DHT22;13725;51.170;4.442;2023-04-15T01:01:34;11.50;99.90
25923;DHT22;13725;51.170;4.442;2023-04-15T01:04:02;11.40;99.90
25923;DHT22;13725;51.170;4.442;2023-04-15T01:06:29;11.40;99.90
25923;DHT22;13725;51.170;4.442;2023-04-15T01:08:56;11.40;99.90
25923;DHT22;13725;51.170;4.442;2023-04-15T01:11:22;11.40;99.90
25923;DHT22;13725;51.170;4.442;2023-04-15T01:13:50;11.30;99.90
25923;DHT22;13725;51.170;4.442;2023-04-15T01:16:17;11.30;99.90
25923;DHT22;13725;51.170;4.442;2023-04-15T01:18:43;11.40;99.90
25923;DHT22;13725;51.170;4.442;2023-04-15T01:21:09;11.50;99.90
25923;DHT22;13725;51.170;4.442;2023-04-15T01:23:36;11.30;99.90
25923;DHT22;13725;51.170;4.442;2023-04-15T01:26:07;11.30;99.90
25923;DHT22;13725;51.170;4.442;2023-04-15T01:28:37;11.20;99.90
25923;DHT22;13725;51.170;4.442;2023-04-15T01:31:10;11.20;99.90
25923;DHT22;13725;51.170;4.442;2023-04-15T01:33:37;11.20;99.90
25923;DHT22;13725;51.170;4.442;2023-04-15T01:36:05;11.20;99.90
25923;DHT22;13725;51.170;4.442;2023-04-15T01:38:34;11.20;99.90
25923;DHT22;13725;51.170;4.442;2023-04-15T01:41:00;11.20;99.90
25923;DHT22;13725;51.170;4.442;2023-04-15T01:43:26;11.20;99.90
25923;DHT22;13725;51.170;4.442;2023-04-15T01:45:52;11.20;99.90
25923;DHT22;13725;51.170;4.442;2023-04-15T01:48:18;11.20;99.90
25923;DHT22;13725;51.170;4.442;2023-04-15T01:50:45;11.20;99.90
25923;DHT22;13725;51.170;4.442;2023-04-15T01:53:10;11.20;99.90
25923;DHT22;13725;51.170;4.442;2023-04-15T01:55:36;11.20;99.90
25923;DHT22;13725;51.170;4.442;2023-04-15T01:58:02;11.20;99.90
25923;DHT22;13725;51.170;4.442;2023-04-15T02:00:28;11.20;99.90
25923;DHT22;13725;51.170;4.442;2023-04-15T02:02:56;11.20;99.90
25923;DHT22;13725;51.170;4.442;2023-04-15T02:05:25;11.20;99.90
25923;DHT22;13725;51.170;4.442;2023-04-15T02:07:51;11.20;99.90
25923;DHT22;13725;51.170;4.442;2023-04-15T02:10:16;11.10;99.90
25923;DHT22;13725;51.170;4.442;2023-04-15T02:12:43;11.10;99.90
25923;DHT22;13725;51.170;4.442;2023-04-15T02:15:09;11.10;99.90
25923;DHT22;13725;51.170;4.442;2023-04-15T02:17:35;11.20;99.90
25923;DHT22;13725;51.170;4.442;2023-04-15T02:20:02;11.20;99.90
25923;DHT22;13725;51.170;4.442;2023-04-15T02:22:31;11.20;99.90
25923;DHT22;13725;51.170;4.442;2023-04-15T02:24:56;11.20;99.90
25923;DHT22;13725;51.170;4.442;2023-04-15T02:27:22;11.20;99.90
25923;DHT22;13725;51.170;4.442;2023-04-15T02:29:49;11.20;99.90
25923;DHT22;13725;51.170;4.442;2023-04-15T02:32:15;11.20;99.90
25923;DHT22;13725;51.170;4.442;2023-04-15T02:34:41;11.10;99.90
25923;DHT22;13725;51.170;4.442;2023-04-15T02:37:10;11.10;99.90
25923;DHT22;13725;51.170;4.442;2023-04-15T02:39:35;11.10;99.90
25923;DHT22;13725;51.170;4.442;2023-04-15T02:42:02;11.00;99.90
25923;DHT22;13725;51.170;4.442;2023-04-15T02:44:28;10.90;99.90
25923;DHT22;13725;51.170;4.442;2023-04-15T02:46:57;10.90;99.90
25923;DHT22;13725;51.170;4.442;2023-04-15T02:49:24;10.90;99.90
25923;DHT22;13725;51.170;4.442;2023-04-15T02:51:50;10.80;99.90
25923;DHT22;13725;51.170;4.442;2023-04-15T02:54:21;10.80;99.90
25923;DHT22;13725;51.170;4.442;2023-04-15T02:56:47;10.80;99.90
25923;DHT22;13725;51.170;4.442;2023-04-15T02:59:14;10.80;99.90
25923;DHT22;13725;51.170;4.442;2023-04-15T03:01:40;10.70;99.90
25923;DHT22;13725;51.170;4.442;2023-04-15T03:04:06;10.60;99.90
25923;DHT22;13725;51.170;4.442;2023-04-15T03:06:33;10.60;99.90
25923;DHT22;13725;51.170;4.442;2023-04-15T03:09:00;10.40;99.90
25923;DHT22;13725;51.170;4.442;2023-04-15T03:11:28;10.40;99.90
25923;DHT22;13725;51.170;4.442;2023-04-15T03:13:54;10.30;99.90
25923;DHT22;13725;51.170;4.442;2023-04-15T03:16:27;10.20;99.90
25923;DHT22;13725;51.170;4.442;2023-04-15T03:18:52;10.20;99.90
25923;DHT22;13725;51.170;4.442;2023-04-15T03:21:21;10.20;99.90
25923;DHT22;13725;51.170;4.442;2023-04-15T03:23:48;10.20;99.90
25923;DHT22;13725;51.170;4.442;2023-04-15T03:26:30;10.20;99.90
25923;DHT22;13725;51.170;4.442;2023-04-15T03:29:01;10.20;99.90
25923;DHT22;13725;51.170;4.442;2023-04-15T03:31:27;10.10;99.90
25923;DHT22;13725;51.170;4.442;2023-04-15T03:33:53;10.10;99.90
25923;DHT22;13725;51.170;4.442;2023-04-15T03:36:18;10.00;99.90
25923;DHT22;13725;51.170;4.442;2023-04-15T03:38:44;9.90;99.90
25923;DHT22;13725;51.170;4.442;2023-04-15T03:41:10;9.90;99.90
25923;DHT22;13725;51.170;4.442;2023-04-15T03:43:36;9.80;99.90
25923;DHT22;13725;51.170;4.442;2023-04-15T03:46:02;9.80;99.90
25923;DHT22;13725;51.170;4.442;2023-04-15T03:48:28;9.50;99.90
25923;DHT22;13725;51.170;4.442;2023-04-15T03:50:53;9.50;99.90
25923;DHT22;13725;51.170;4.442;2023-04-15T03:53:20;9.50;99.90
25923;DHT22;13725;51.170;4.442;2023-04-15T03:55:46;9.50;99.90
25923;DHT22;13725;51.170;4.442;2023-04-15T03:58:12;9.40;99.90
25923;DHT22;13725;51.170;4.442;2023-04-15T04:00:38;9.50;99.90
25923;DHT22;13725;51.170;4.442;2023-04-15T04:03:04;9.40;99.90
25923;DHT22;13725;51.170;4.442;2023-04-15T04:05:30;9.20;99.90
25923;DHT22;13725;51.170;4.442;2023-04-15T04:07:56;9.20;99.90
25923;DHT22;13725;51.170;4.442;2023-04-15T04:10:21;9.10;99.90
25923;DHT22;13725;51.170;4.442;2023-04-15T04:12:47;9.10;99.90
25923;DHT22;13725;51.170;4.442;2023-04-15T04:15:13;9.20;99.90
25923;DHT22;13725;51.170;4.442;2023-04-15T04:17:38;9.30;99.90
25923;DHT22;13725;51.170;4.442;2023-04-15T04:20:05;9.60;99.90
25923;DHT22;13725;51.170;4.442;2023-04-15T04:22:31;9.50;99.90
25923;DHT22;13725;51.170;4.442;2023-04-15T04:24:56;9.60;99.90
25923;DHT22;13725;51.170;4.442;2023-04-15T04:27:24;9.60;99.90
25923;DHT22;13725;51.170;4.442;2023-04-15T04:29:50;9.70;99.90
25923;DHT22;13725;51.170;4.442;2023-04-15T04:32:16;9.70;99.90
25923;DHT22;13725;51.170;4.442;2023-04-15T04:34:42;9.70;99.90
25923;DHT22;13725;51.170;4.442;2023-04-15T04:37:07;9.70;99.90
25923;DHT22;13725;51.170;4.442;2023-04-15T04:39:33;9.60;99.90
25923;DHT22;13725;51.170;4.442;2023-04-15T04:41:59;9.60;99.90
25923;DHT22;13725;51.170;4.442;2023-04-15T04:44:25;9.60;99.90
25923;DHT22;13725;51.170;4.442;2023-04-15T04:46:51;9.60;99.90
25923;DHT22;13725;51.170;4.442;2023-04-15T04:49:17;9.50;99.90
25923;DHT22;13725;51.170;4.442;2023-04-15T04:51:43;9.40;99.90
25923;DHT22;13725;51.170;4.442;2023-04-15T04:54:08;9.50;99.90
25923;DHT22;13725;51.170;4.442;2023-04-15T04:56:35;9.50;99.90
25923;DHT22;13725;51.170;4.442;2023-04-15T04:59:03;9.60;99.90
25923;DHT22;13725;51.170;4.442;2023-04-15T05:01:28;9.80;99.90
25923;DHT22;13725;51.170;4.442;2023-04-15T05:03:54;9.90;99.90
25923;DHT22;13725;51.170;4.442;2023-04-15T05:06:20;9.80;99.90
25923;DHT22;13725;51.170;4.442;2023-04-15T05:08:47;9.90;99.90
25923;DHT22;13725;51.170;4.442;2023-04-15T05:11:12;9.90;99.90
25923;DHT22;13725;51.170;4.442;2023-04-15T05:13:38;9.90;99.90
25923;DHT22;13725;51.170;4.442;2023-04-15T05:16:04;10.00;99.90
25923;DHT22;13725;51.170;4.442;2023-04-15T05:18:30;10.10;99.90
25923;DHT22;13725;51.170;4.442;2023-04-15T05:20:56;10.20;99.90
25923;DHT22;13725;51.170;4.442;2023-04-15T05:23:22;10.20;99.90
25923;DHT22;13725;51.170;4.442;2023-04-15T05:25:48;10.40;99.90
25923;DHT22;13725;51.170;4.442;2023-04-15T05:28:14;10.40;99.90
25923;DHT22;13725;51.170;4.442;2023-04-15T05:30:40;10.40;99.90
25923;DHT22;13725;51.170;4.442;2023-04-15T05:33:05;10.40;99.90
25923;DHT22;13725;51.170;4.442;2023-04-15T05:35:31;10.40;99.90
25923;DHT22;13725;51.170;4.442;2023-04-15T05:37:57;10.50;99.90
25923;DHT22;13725;51.170;4.442;2023-04-15T05:40:23;10.50;99.90
25923;DHT22;13725;51.170;4.442;2023-04-15T05:42:48;10.60;99.90
25923;DHT22;13725;51.170;4.442;2023-04-15T05:45:14;10.70;99.90
25923;DHT22;13725;51.170;4.442;2023-04-15T05:47:40;10.60;99.90
25923;DHT22;13725;51.170;4.442;2023-04-15T05:50:06;10.60;99.90
25923;DHT22;13725;51.170;4.442;2023-04-15T05:52:32;10.70;99.90
25923;DHT22;13725;51.170;4.442;2023-04-15T05:54:58;10.70;99.90
25923;DHT22;13725;51.170;4.442;2023-04-15T05:57:24;10.80;99.90
25923;DHT22;13725;51.170;4.442;2023-04-15T05:59:49;10.80;99.90
25923;DHT22;13725;51.170;4.442;2023-04-15T06:02:18;10.80;99.90
25923;DHT22;13725;51.170;4.442;2023-04-15T06:04:44;10.80;99.90
25923;DHT22;13725;51.170;4.442;2023-04-15T06:07:09;10.90;99.90
25923;DHT22;13725;51.170;4.442;2023-04-15T06:09:35;11.00;99.90
25923;DHT22;13725;51.170;4.442;2023-04-15T06:12:01;11.00;99.90
25923;DHT22;13725;51.170;4.442;2023-04-15T06:14:27;11.10;99.90
25923;DHT22;13725;51.170;4.442;2023-04-15T06:16:53;11.20;99.90
25923;DHT22;13725;51.170;4.442;2023-04-15T06:19:19;11.20;99.90
25923;DHT22;13725;51.170;4.442;2023-04-15T06:21:45;11.30;99.90
25923;DHT22;13725;51.170;4.442;2023-04-15T06:24:11;11.30;99.90
25923;DHT22;13725;51.170;4.442;2023-04-15T06:26:37;11.40;99.90
25923;DHT22;13725;51.170;4.442;2023-04-15T06:29:02;11.50;99.90
25923;DHT22;13725;51.170;4.442;2023-04-15T06:31:29;11.40;99.90
25923;DHT22;13725;51.170;4.442;2023-04-15T06:33:55;11.50;99.90
25923;DHT22;13725;51.170;4.442;2023-04-15T06:36:20;11.60;99.90
25923;DHT22;13725;51.170;4.442;2023-04-15T06:38:46;11.70;99.90
25923;DHT22;13725;51.170;4.442;2023-04-15T06:41:12;11.80;99.90
25923;DHT22;13725;51.170;4.442;2023-04-15T06:43:38;11.90;99.90
25923;DHT22;13725;51.170;4.442;2023-04-15T06:46:04;12.20;99.90
25923;DHT22;13725;51.170;4.442;2023-04-15T06:48:30;12.30;99.90
25923;DHT22;13725;51.170;4.442;2023-04-15T06:50:55;12.40;99.90
25923;DHT22;13725;51.170;4.442;2023-04-15T06:53:26;12.90;99.90
25923;DHT22;13725;51.170;4.442;2023-04-15T06:55:55;13.50;99.90
25923;DHT22;13725;51.170;4.442;2023-04-15T06:58:21;14.20;99.90
25923;DHT22;13725;51.170;4.442;2023-04-15T07:00:47;15.20;99.90
25923;DHT22;13725;51.170;4.442;2023-04-15T07:03:13;15.30;99.90
25923;DHT22;13725;51.170;4.442;2023-04-15T07:05:39;15.20;99.90
25923;DHT22;13725;51.170;4.442;2023-04-15T07:08:06;14.70;99.90
25923;DHT22;13725;51.170;4.442;2023-04-15T07:10:35;14.40;99.90
25923;DHT22;13725;51.170;4.442;2023-04-15T07:13:01;13.90;99.90
25923;DHT22;13725;51.170;4.442;2023-04-15T07:15:27;13.70;99.90
25923;DHT22;13725;51.170;4.442;2023-04-15T07:17:53;13.80;99.90
25923;DHT22;13725;51.170;4.442;2023-04-15T07:20:19;14.10;99.90
25923;DHT22;13725;51.170;4.442;2023-04-15T07:22:44;14.80;99.90
25923;DHT22;13725;51.170;4.442;2023-04-15T07:25:10;16.70;99.90
25923;DHT22;13725;51.170;4.442;2023-04-15T07:27:36;18.00;99.90
25923;DHT22;13725;51.170;4.442;2023-04-15T07:30:01;19.00;99.90
25923;DHT22;13725;51.170;4.442;2023-04-15T07:32:27;20.20;99.90
25923;DHT22;13725;51.170;4.442;2023-04-15T07:34:53;21.20;99.90
25923;DHT22;13725;51.170;4.442;2023-04-15T07:37:18;22.40;99.90
25923;DHT22;13725;51.170;4.442;2023-04-15T07:39:44;23.20;99.00
25923;DHT22;13725;51.170;4.442;2023-04-15T07:42:10;23.80;96.10
25923;DHT22;13725;51.170;4.442;2023-04-15T07:44:36;23.80;93.40
25923;DHT22;13725;51.170;4.442;2023-04-15T07:47:02;23.50;92.30
25923;DHT22;13725;51.170;4.442;2023-04-15T07:49:28;23.70;91.50
25923;DHT22;13725;51.170;4.442;2023-04-15T07:51:54;24.50;90.70
25923;DHT22;13725;51.170;4.442;2023-04-15T07:54:22;25.20;86.60
25923;DHT22;13725;51.170;4.442;2023-04-15T07:56:47;24.80;85.10
25923;DHT22;13725;51.170;4.442;2023-04-15T07:59:14;25.20;84.00
25923;DHT22;13725;51.170;4.442;2023-04-15T08:01:42;25.70;82.10
25923;DHT22;13725;51.170;4.442;2023-04-15T08:04:08;26.40;81.20
25923;DHT22;13725;51.170;4.442;2023-04-15T08:06:34;26.80;78.20
25923;DHT22;13725;51.170;4.442;2023-04-15T08:09:01;26.80;76.70
25923;DHT22;13725;51.170;4.442;2023-04-15T08:11:27;27.20;75.20
25923;DHT22;13725;51.170;4.442;2023-04-15T08:13:52;27.20;72.90
25923;DHT22;13725;51.170;4.442;2023-04-15T08:16:23;27.30;73.30
25923;DHT22;13725;51.170;4.442;2023-04-15T08:18:50;26.50;74.20
25923;DHT22;13725;51.170;4.442;2023-04-15T08:21:18;26.40;72.80
25923;DHT22;13725;51.170;4.442;2023-04-15T08:23:45;26.00;73.30
25923;DHT22;13725;51.170;4.442;2023-04-15T08:26:11;26.00;73.10
25923;DHT22;13725;51.170;4.442;2023-04-15T08:28:39;26.10;72.60
25923;DHT22;13725;51.170;4.442;2023-04-15T08:31:06;26.80;71.20
25923;DHT22;13725;51.170;4.442;2023-04-15T08:33:33;27.10;71.20
25923;DHT22;13725;51.170;4.442;2023-04-15T08:35:58;27.70;71.00
25923;DHT22;13725;51.170;4.442;2023-04-15T08:38:24;26.50;70.60
25923;DHT22;13725;51.170;4.442;2023-04-15T08:40:50;27.10;71.90
25923;DHT22;13725;51.170;4.442;2023-04-15T08:43:23;28.10;69.70
25923;DHT22;13725;51.170;4.442;2023-04-15T08:45:53;27.30;68.90
25923;DHT22;13725;51.170;4.442;2023-04-15T08:48:20;26.90;69.60
25923;DHT22;13725;51.170;4.442;2023-04-15T08:50:46;26.70;69.60
25923;DHT22;13725;51.170;4.442;2023-04-15T08:53:13;26.90;69.80
25923;DHT22;13725;51.170;4.442;2023-04-15T08:55:44;26.80;69.40
25923;DHT22;13725;51.170;4.442;2023-04-15T08:58:11;27.60;69.80
25923;DHT22;13725;51.170;4.442;2023-04-15T09:00:38;27.40;69.20
25923;DHT22;13725;51.170;4.442;2023-04-15T09:03:05;26.70;69.60
25923;DHT22;13725;51.170;4.442;2023-04-15T09:05:37;27.50;68.50
25923;DHT22;13725;51.170;4.442;2023-04-15T09:08:03;26.80;68.60
25923;DHT22;13725;51.170;4.442;2023-04-15T09:10:30;26.80;70.80
25923;DHT22;13725;51.170;4.442;2023-04-15T09:12:57;27.00;69.80
25923;DHT22;13725;51.170;4.442;2023-04-15T09:15:26;26.70;69.20
25923;DHT22;13725;51.170;4.442;2023-04-15T09:17:56;26.00;70.70
25923;DHT22;13725;51.170;4.442;2023-04-15T09:20:21;26.20;70.70
25923;DHT22;13725;51.170;4.442;2023-04-15T09:22:48;27.60;69.40
25923;DHT22;13725;51.170;4.442;2023-04-15T09:27:49;28.10;68.70
25923;DHT22;13725;51.170;4.442;2023-04-15T09:30:15;28.90;67.90
25923;DHT22;13725;51.170;4.442;2023-04-15T09:32:52;29.30;66.00
25923;DHT22;13725;51.170;4.442;2023-04-15T09:35:18;28.80;67.00
25923;DHT22;13725;51.170;4.442;2023-04-15T09:37:45;29.00;64.50
25923;DHT22;13725;51.170;4.442;2023-04-15T09:40:11;28.90;64.80
25923;DHT22;13725;51.170;4.442;2023-04-15T09:42:53;28.70;64.10
25923;DHT22;13725;51.170;4.442;2023-04-15T09:45:19;27.50;65.30
25923;DHT22;13725;51.170;4.442;2023-04-15T09:47:46;27.30;65.70
25923;DHT22;13725;51.170;4.442;2023-04-15T09:50:12;28.00;65.40
25923;DHT22;13725;51.170;4.442;2023-04-15T09:52:43;29.00;63.50
25923;DHT22;13725;51.170;4.442;2023-04-15T09:55:09;27.60;63.00
25923;DHT22;13725;51.170;4.442;2023-04-15T09:57:36;27.80;62.20
25923;DHT22;13725;51.170;4.442;2023-04-15T10:00:04;27.50;62.80
25923;DHT22;13725;51.170;4.442;2023-04-15T10:02:32;28.30;61.70
25923;DHT22;13725;51.170;4.442;2023-04-15T10:04:58;28.80;61.70
25923;DHT22;13725;51.170;4.442;2023-04-15T10:07:26;30.10;59.90
25923;DHT22;13725;51.170;4.442;2023-04-15T10:09:52;29.90;58.20
25923;DHT22;13725;51.170;4.442;2023-04-15T10:12:18;29.50;59.20
25923;DHT22;13725;51.170;4.442;2023-04-15T10:14:47;29.20;60.40
25923;DHT22;13725;51.170;4.442;2023-04-15T10:17:17;30.10;58.90
25923;DHT22;13725;51.170;4.442;2023-04-15T10:19:43;31.10;56.60
25923;DHT22;13725;51.170;4.442;2023-04-15T10:22:09;31.10;57.40
25923;DHT22;13725;51.170;4.442;2023-04-15T10:24:35;30.80;56.70
25923;DHT22;13725;51.170;4.442;2023-04-15T10:27:04;31.00;55.80
25923;DHT22;13725;51.170;4.442;2023-04-15T10:29:30;30.60;53.90
25923;DHT22;13725;51.170;4.442;2023-04-15T10:31:58;30.40;53.20
25923;DHT22;13725;51.170;4.442;2023-04-15T10:34:24;30.10;54.10
25923;DHT22;13725;51.170;4.442;2023-04-15T10:36:50;30.60;52.80
25923;DHT22;13725;51.170;4.442;2023-04-15T10:42:06;29.60;55.20
25923;DHT22;13725;51.170;4.442;2023-04-15T10:44:32;28.40;56.40
25923;DHT22;13725;51.170;4.442;2023-04-15T10:46:58;29.20;58.00
25923;DHT22;13725;51.170;4.442;2023-04-15T10:49:24;30.00;55.90
25923;DHT22;13725;51.170;4.442;2023-04-15T10:51:52;30.60;55.90
25923;DHT22;13725;51.170;4.442;2023-04-15T10:59:38;30.80;52.20
25923;DHT22;13725;51.170;4.442;2023-04-15T11:02:16;30.00;52.80
25923;DHT22;13725;51.170;4.442;2023-04-15T11:04:58;30.10;52.10
25923;DHT22;13725;51.170;4.442;2023-04-15T11:12:57;28.80;54.80
25923;DHT22;13725;51.170;4.442;2023-04-15T11:15:45;29.40;53.40
25923;DHT22;13725;51.170;4.442;2023-04-15T11:18:13;29.20;54.20
25923;DHT22;13725;51.170;4.442;2023-04-15T11:20:40;29.20;53.20
25923;DHT22;13725;51.170;4.442;2023-04-15T11:23:08;29.30;53.50
25923;DHT22;13725;51.170;4.442;2023-04-15T11:25:35;30.20;53.00
25923;DHT22;13725;51.170;4.442;2023-04-15T11:28:04;31.30;53.70
25923;DHT22;13725;51.170;4.442;2023-04-15T11:30:32;31.50;51.40
25923;DHT22;13725;51.170;4.442;2023-04-15T11:33:01;31.70;50.20
25923;DHT22;13725;51.170;4.442;2023-04-15T11:35:28;30.50;50.00
25923;DHT22;13725;51.170;4.442;2023-04-15T11:37:54;30.50;51.10
25923;DHT22;13725;51.170;4.442;2023-04-15T11:40:27;30.80;52.90
25923;DHT22;13725;51.170;4.442;2023-04-15T11:43:10;30.60;52.80
25923;DHT22;13725;51.170;4.442;2023-04-15T11:45:36;29.90;50.40
25923;DHT22;13725;51.170;4.442;2023-04-15T11:48:09;30.30;49.70
25923;DHT22;13725;51.170;4.442;2023-04-15T11:50:37;29.80;50.10
25923;DHT22;13725;51.170;4.442;2023-04-15T11:53:06;29.50;50.20
25923;DHT22;13725;51.170;4.442;2023-04-15T11:55:44;29.60;52.00
25923;DHT22;13725;51.170;4.442;2023-04-15T11:58:15;30.00;53.30
25923;DHT22;13725;51.170;4.442;2023-04-15T12:00:49;31.00;52.50
25923;DHT22;13725;51.170;4.442;2023-04-15T12:03:22;31.30;49.90
25923;DHT22;13725;51.170;4.442;2023-04-15T12:06:18;30.60;50.90
25923;DHT22;13725;51.170;4.442;2023-04-15T12:09:03;29.70;51.40
25923;DHT22;13725;51.170;4.442;2023-04-15T12:11:40;28.70;53.30
25923;DHT22;13725;51.170;4.442;2023-04-15T12:14:27;28.70;54.20
25923;DHT22;13725;51.170;4.442;2023-04-15T12:16:58;28.70;54.10
25923;DHT22;13725;51.170;4.442;2023-04-15T12:19:26;29.50;54.30
25923;DHT22;13725;51.170;4.442;2023-04-15T12:22:15;29.10;53.80
25923;DHT22;13725;51.170;4.442;2023-04-15T12:24:42;29.20;55.20
25923;DHT22;13725;51.170;4.442;2023-04-15T12:27:13;29.50;54.90
25923;DHT22;13725;51.170;4.442;2023-04-15T12:29:40;30.40;53.50
25923;DHT22;13725;51.170;4.442;2023-04-15T12:32:14;30.80;51.60
25923;DHT22;13725;51.170;4.442;2023-04-15T12:34:49;30.60;52.40
25923;DHT22;13725;51.170;4.442;2023-04-15T12:37:15;30.50;52.30
25923;DHT22;13725;51.170;4.442;2023-04-15T12:39:43;30.10;52.30
25923;DHT22;13725;51.170;4.442;2023-04-15T12:42:09;29.20;53.50
25923;DHT22;13725;51.170;4.442;2023-04-15T12:44:37;29.70;53.20
25923;DHT22;13725;51.170;4.442;2023-04-15T12:47:04;29.50;52.50
25923;DHT22;13725;51.170;4.442;2023-04-15T12:49:30;29.00;52.70
25923;DHT22;13725;51.170;4.442;2023-04-15T12:51:57;29.30;54.10
25923;DHT22;13725;51.170;4.442;2023-04-15T12:54:27;29.50;53.40
25923;DHT22;13725;51.170;4.442;2023-04-15T12:56:53;29.60;52.40
25923;DHT22;13725;51.170;4.442;2023-04-15T12:59:20;29.60;53.50
25923;DHT22;13725;51.170;4.442;2023-04-15T13:01:46;29.40;52.70
25923;DHT22;13725;51.170;4.442;2023-04-15T13:04:13;28.50;52.70
25923;DHT22;13725;51.170;4.442;2023-04-15T13:06:39;27.50;54.20
25923;DHT22;13725;51.170;4.442;2023-04-15T13:09:04;26.90;54.10
25923;DHT22;13725;51.170;4.442;2023-04-15T13:11:31;27.60;54.60
25923;DHT22;13725;51.170;4.442;2023-04-15T13:14:00;27.80;54.50
25923;DHT22;13725;51.170;4.442;2023-04-15T13:16:27;28.50;55.40
25923;DHT22;13725;51.170;4.442;2023-04-15T13:18:52;28.70;55.40
25923;DHT22;13725;51.170;4.442;2023-04-15T13:21:19;28.50;55.20
25923;DHT22;13725;51.170;4.442;2023-04-15T13:23:44;29.00;56.30
25923;DHT22;13725;51.170;4.442;2023-04-15T13:26:10;29.20;53.90
25923;DHT22;13725;51.170;4.442;2023-04-15T13:28:36;28.10;55.50
25923;DHT22;13725;51.170;4.442;2023-04-15T13:31:02;27.50;54.00
25923;DHT22;13725;51.170;4.442;2023-04-15T13:33:28;27.40;55.50
25923;DHT22;13725;51.170;4.442;2023-04-15T13:35:53;26.90;55.10
25923;DHT22;13725;51.170;4.442;2023-04-15T13:38:19;26.90;55.90
25923;DHT22;13725;51.170;4.442;2023-04-15T13:40:45;26.60;57.10
25923;DHT22;13725;51.170;4.442;2023-04-15T13:43:11;26.90;57.20
25923;DHT22;13725;51.170;4.442;2023-04-15T13:45:36;26.30;56.00
25923;DHT22;13725;51.170;4.442;2023-04-15T13:48:03;25.80;57.10
25923;DHT22;13725;51.170;4.442;2023-04-15T13:50:29;25.70;56.50
25923;DHT22;13725;51.170;4.442;2023-04-15T13:52:55;25.80;57.90
25923;DHT22;13725;51.170;4.442;2023-04-15T13:55:20;25.50;58.00
25923;DHT22;13725;51.170;4.442;2023-04-15T13:57:47;25.80;59.50
25923;DHT22;13725;51.170;4.442;2023-04-15T14:00:13;25.60;58.10
25923;DHT22;13725;51.170;4.442;2023-04-15T14:02:39;24.50;59.20
25923;DHT22;13725;51.170;4.442;2023-04-15T14:05:07;24.50;60.80
25923;DHT22;13725;51.170;4.442;2023-04-15T14:07:32;24.30;60.90
25923;DHT22;13725;51.170;4.442;2023-04-15T14:09:59;23.40;63.20
25923;DHT22;13725;51.170;4.442;2023-04-15T14:12:25;22.80;62.90
25923;DHT22;13725;51.170;4.442;2023-04-15T14:14:51;22.30;64.20
25923;DHT22;13725;51.170;4.442;2023-04-15T14:17:16;21.80;66.50
25923;DHT22;13725;51.170;4.442;2023-04-15T14:19:42;21.50;68.70
25923;DHT22;13725;51.170;4.442;2023-04-15T14:22:07;21.40;68.40
25923;DHT22;13725;51.170;4.442;2023-04-15T14:24:33;20.70;68.30
25923;DHT22;13725;51.170;4.442;2023-04-15T14:26:59;19.90;68.60
25923;DHT22;13725;51.170;4.442;2023-04-15T14:29:26;19.70;69.50
25923;DHT22;13725;51.170;4.442;2023-04-15T14:31:52;19.40;71.30
25923;DHT22;13725;51.170;4.442;2023-04-15T14:34:18;19.50;73.40
25923;DHT22;13725;51.170;4.442;2023-04-15T14:36:46;19.80;72.40
25923;DHT22;13725;51.170;4.442;2023-04-15T14:39:13;19.60;72.80
25923;DHT22;13725;51.170;4.442;2023-04-15T14:41:38;19.50;73.00
25923;DHT22;13725;51.170;4.442;2023-04-15T14:44:04;19.30;73.60
25923;DHT22;13725;51.170;4.442;2023-04-15T14:46:30;19.20;74.00
25923;DHT22;13725;51.170;4.442;2023-04-15T14:48:56;19.30;73.10
25923;DHT22;13725;51.170;4.442;2023-04-15T14:51:22;19.40;69.00
25923;DHT22;13725;51.170;4.442;2023-04-15T14:53:47;19.20;68.40
25923;DHT22;13725;51.170;4.442;2023-04-15T14:56:13;19.10;69.40
25923;DHT22;13725;51.170;4.442;2023-04-15T14:58:39;19.10;70.80
25923;DHT22;13725;51.170;4.442;2023-04-15T15:01:05;18.80;70.30
25923;DHT22;13725;51.170;4.442;2023-04-15T15:03:31;18.70;73.00
25923;DHT22;13725;51.170;4.442;2023-04-15T15:05:56;18.50;72.20
25923;DHT22;13725;51.170;4.442;2023-04-15T15:08:22;18.60;72.70
25923;DHT22;13725;51.170;4.442;2023-04-15T15:10:48;18.30;74.40
25923;DHT22;13725;51.170;4.442;2023-04-15T15:13:14;18.40;75.10
25923;DHT22;13725;51.170;4.442;2023-04-15T15:15:40;18.00;75.60
25923;DHT22;13725;51.170;4.442;2023-04-15T15:18:06;17.80;76.30
25923;DHT22;13725;51.170;4.442;2023-04-15T15:20:32;17.60;77.90
25923;DHT22;13725;51.170;4.442;2023-04-15T15:22:59;17.70;79.10
25923;DHT22;13725;51.170;4.442;2023-04-15T15:25:26;17.70;78.20
25923;DHT22;13725;51.170;4.442;2023-04-15T15:27:51;17.80;77.50
25923;DHT22;13725;51.170;4.442;2023-04-15T15:30:17;17.90;77.00
25923;DHT22;13725;51.170;4.442;2023-04-15T15:32:43;17.80;74.80
25923;DHT22;13725;51.170;4.442;2023-04-15T15:35:09;17.70;74.40
25923;DHT22;13725;51.170;4.442;2023-04-15T15:37:36;17.70;73.90
25923;DHT22;13725;51.170;4.442;2023-04-15T15:40:06;17.60;75.30
25923;DHT22;13725;51.170;4.442;2023-04-15T15:42:32;17.30;75.20
25923;DHT22;13725;51.170;4.442;2023-04-15T15:44:58;17.10;78.20
25923;DHT22;13725;51.170;4.442;2023-04-15T15:47:24;17.00;80.30